Mason City Municipal Airport
KMCW : now visible

Airfield :











YOU CAN JOIN US ON...

 
LOGIN :

Register | Disclaimer

   EN    FR    IT 

 









Legend :    VFR   Marginal VFR   IFR   Intensive IFR   Very Intensive IFR
Visi :
Ceiling :
>= 8 km
>= 3000ft
5 to 8 km
1000 to 3000 ft
1500m to 5 km
500 to 1000 ft
800 to 1500m
200 to 500 ft
< 800m
< 200 ft
Symbols :   Thunderstorms  Fog  Heavy snow  Heavy precipitations  Wind > 20 kt







- Airport Elevation : 1213 ft


KMCW - Mason City Municipal

CURRENT METAR :
  • 181909Z AUTO 20012G21KT 10SM FEW024 BKN035 31/24 A2973 RMK AO2 T03110244

EXPIRED METARs :
  • 181901Z AUTO 20012KT 10SM FEW024 BKN029 BKN039 31/25 A2973 RMK AO2 T03060250
  • 181836Z AUTO 20013G21KT 10SM SCT023 BKN030 BKN034 30/24 A2974 RMK AO2 T03000244
  • 181820Z AUTO 20012KT 10SM BKN023 BKN029 31/26 A2974 RMK AO2 T03060256
  • 181753Z AUTO 17011KT 10SM SCT022 BKN033 30/25 A2974 RMK AO2 SLP055 T03000250 10317 20228 53007
  • 181740Z AUTO 17010KT 10SM SCT022 SCT027 BKN033 31/26 A2973 RMK AO2 T03060256
  • 181715Z AUTO 00000KT 10SM BKN024 32/26 A2973 RMK AO2 T03170256
  • 181653Z AUTO VRB05KT 10SM CLR 31/26 A2971 RMK AO2 SLP046 T03110256

TAF KMCW
Valid from the 18 at 18:00 until the 19 at 18:00 UTC


181731Z 1818/1918 VRB04KT P6SM BKN024
FM181830 21010KT P6SM SCT030
FM191500 20011G17KT P6SM SKC
KZMP FIR / North America



MET'MAP, your aeronautical weather chart ! - Copyright ORBIFLY December 2007 - Disclaimer

ORBIFLY MET'MAP TEAM :

Programming & Development : Alexandra Zaïnal
Concept & Development : Baudouin d'Aumeries
Co-Development & Prog : Marc-Olivier Méhu
Technical & hardware support : Manuel Goepfert

Contact : metmap@orbifly.com




SOURCES & CREDITS :

   NOAA       Earth
Advisory